createdAt,value
2019-02-25T00:00:19.727Z,9.10
2019-02-25T00:01:19.750Z,8.20
2019-02-25T00:02:19.797Z,9.80
2019-02-25T00:03:19.800Z,9.80
2019-02-25T00:04:19.847Z,7.10
2019-02-25T00:05:19.850Z,7.40
2019-02-25T00:06:19.876Z,7.90
2019-02-25T00:07:19.899Z,8.90
2019-02-25T00:08:19.973Z,7.10
2019-02-25T00:09:19.950Z,6.70
2019-02-25T00:10:19.976Z,6.30
2019-02-25T00:11:19.998Z,6.90
2019-02-25T00:12:20.025Z,8.70
2019-02-25T00:13:20.049Z,6.60
2019-02-25T00:14:20.091Z,6.10
2019-02-25T00:15:20.098Z,6.90
2019-02-25T00:16:20.122Z,6.50
2019-02-25T00:17:20.146Z,8.10
2019-02-25T00:18:20.175Z,6.30
2019-02-25T00:19:20.195Z,6.20
2019-02-25T00:20:20.222Z,5.60
2019-02-25T00:21:20.245Z,6.10
2019-02-25T00:22:20.272Z,5.20
2019-02-25T00:23:20.294Z,5.30
2019-02-25T00:24:20.319Z,5.80
2019-02-25T00:25:20.342Z,5.70
2019-02-25T00:26:20.368Z,6.80
2019-02-25T00:27:20.394Z,6.30
2019-02-25T00:28:20.421Z,7.60
2019-02-25T00:29:20.445Z,7.30
2019-02-25T00:30:20.472Z,7.10
2019-02-25T00:31:20.490Z,9.10
2019-02-25T00:32:20.515Z,11.10
2019-02-25T00:33:20.541Z,10.70
2019-02-25T00:34:20.565Z,11.00
2019-02-25T00:35:20.589Z,6.10
2019-02-25T00:36:20.613Z,7.10
2019-02-25T00:37:20.639Z,9.70
2019-02-25T00:38:20.663Z,5.70
2019-02-25T00:39:20.686Z,6.20
2019-02-25T00:40:20.711Z,7.00
2019-02-25T00:41:20.738Z,6.00
2019-02-25T00:42:20.761Z,6.30
2019-02-25T00:43:20.785Z,5.60
2019-02-25T00:44:20.812Z,5.80
2019-02-25T00:45:20.833Z,5.70
2019-02-25T00:46:20.906Z,6.10
2019-02-25T00:47:20.883Z,6.80
2019-02-25T00:48:20.908Z,7.70
2019-02-25T00:49:20.932Z,7.30
2019-02-25T00:50:20.959Z,7.10
2019-02-25T00:51:20.981Z,14.50
2019-02-25T00:52:21.005Z,11.30
2019-02-25T00:53:21.032Z,7.10
2019-02-25T00:54:21.055Z,7.80
2019-02-25T00:55:21.079Z,8.80
2019-02-25T00:56:21.104Z,7.30
2019-02-25T00:57:21.132Z,6.80
2019-02-25T00:58:21.156Z,8.80
2019-02-25T00:59:21.180Z,9.20
2019-02-25T01:00:21.201Z,7.50
2019-02-25T01:01:21.230Z,11.10
2019-02-25T01:02:21.251Z,8.40
2019-02-25T01:03:21.276Z,9.70
2019-02-25T01:04:21.299Z,8.30
2019-02-25T01:05:21.323Z,11.80
2019-02-25T01:06:21.348Z,11.10
2019-02-25T01:07:21.373Z,7.90
2019-02-25T01:08:21.397Z,8.10
2019-02-25T01:09:21.425Z,6.30
2019-02-25T01:10:21.447Z,6.90
2019-02-25T01:11:21.470Z,7.30
2019-02-25T01:12:21.495Z,8.80
2019-02-25T01:13:21.520Z,8.20
2019-02-25T01:14:21.544Z,8.10
2019-02-25T01:15:21.569Z,8.50
2019-02-25T01:16:21.593Z,11.70
2019-02-25T01:17:21.618Z,12.30
2019-02-25T01:18:21.642Z,10.00
2019-02-25T01:19:21.666Z,9.40
2019-02-25T01:20:21.693Z,10.20
2019-02-25T01:21:21.715Z,11.30
2019-02-25T01:22:21.741Z,11.40
2019-02-25T01:23:21.814Z,13.10
2019-02-25T01:24:21.788Z,10.70
2019-02-25T01:25:21.813Z,8.80
2019-02-25T01:26:21.844Z,12.00
2019-02-25T01:27:21.862Z,8.40
2019-02-25T01:28:21.886Z,8.20
2019-02-25T01:29:21.915Z,9.80
2019-02-25T01:30:21.938Z,10.90
2019-02-25T01:31:21.960Z,10.60
2019-02-25T01:32:21.986Z,8.40
2019-02-25T01:33:22.009Z,9.80
2019-02-25T01:34:22.035Z,9.30
2019-02-25T01:35:22.056Z,7.70
2019-02-25T01:36:22.082Z,8.90
2019-02-25T01:37:22.105Z,8.50
2019-02-25T01:38:22.130Z,11.10
2019-02-25T01:39:22.153Z,7.10
2019-02-25T01:40:22.178Z,6.80
2019-02-25T01:41:22.203Z,6.20
2019-02-25T01:42:22.229Z,11.70
2019-02-25T01:43:22.252Z,7.20
2019-02-25T01:44:22.275Z,7.00
2019-02-25T01:45:22.301Z,7.80
2019-02-25T01:46:22.324Z,8.30
2019-02-25T01:47:22.349Z,7.50
2019-02-25T01:48:22.373Z,7.00
2019-02-25T01:49:22.399Z,7.90
2019-02-25T01:50:22.422Z,7.00
2019-02-25T01:51:22.447Z,6.60
2019-02-25T01:52:22.473Z,7.80
2019-02-25T01:53:22.498Z,8.00
2019-02-25T01:54:22.521Z,8.20
2019-02-25T01:55:22.545Z,7.50
2019-02-25T01:56:22.570Z,8.10
2019-02-25T01:57:22.592Z,6.80
2019-02-25T01:58:22.618Z,6.50
2019-02-25T01:59:22.640Z,6.20
2019-02-25T02:00:22.665Z,5.00
2019-02-25T02:01:22.691Z,5.20
2019-02-25T02:02:22.714Z,6.20
2019-02-25T02:03:22.737Z,5.10
2019-02-25T02:04:22.763Z,5.40
2019-02-25T02:05:24.425Z,6.40
2019-02-25T02:06:22.812Z,5.80
2019-02-25T02:07:22.837Z,6.10
2019-02-25T02:08:22.860Z,6.50
2019-02-25T02:09:22.887Z,4.50
2019-02-25T02:10:22.910Z,4.70
2019-02-25T02:11:22.932Z,5.40
2019-02-25T02:12:22.957Z,3.70
2019-02-25T02:13:22.982Z,3.70
2019-02-25T02:14:23.009Z,4.80
2019-02-25T02:15:23.032Z,3.40
2019-02-25T02:16:23.054Z,3.20
2019-02-25T02:17:23.079Z,4.10
2019-02-25T02:18:23.107Z,3.90
2019-02-25T02:19:23.127Z,6.60
2019-02-25T02:20:23.153Z,5.70
2019-02-25T02:21:23.177Z,5.80
2019-02-25T02:22:23.202Z,5.70
2019-02-25T02:23:23.224Z,8.60
2019-02-25T02:24:23.249Z,7.60
2019-02-25T02:25:23.274Z,7.60
2019-02-25T02:26:23.303Z,8.60
2019-02-25T02:27:23.324Z,7.50
2019-02-25T02:28:23.346Z,7.10
2019-02-25T02:29:23.372Z,10.30
2019-02-25T02:30:23.394Z,7.90
2019-02-25T02:31:23.424Z,8.10
2019-02-25T02:32:23.443Z,6.80
2019-02-25T02:33:23.469Z,4.80
2019-02-25T02:34:23.493Z,4.40
2019-02-25T02:35:23.515Z,4.50
2019-02-25T02:36:23.543Z,5.20
2019-02-25T02:37:23.565Z,6.20
2019-02-25T02:38:23.589Z,5.80
2019-02-25T02:39:23.614Z,6.10
2019-02-25T02:40:23.636Z,6.20
2019-02-25T02:41:23.661Z,5.60
2019-02-25T02:42:23.686Z,5.70
2019-02-25T02:43:23.711Z,5.40
2019-02-25T02:44:23.733Z,5.10
2019-02-25T02:45:23.758Z,5.30
2019-02-25T02:46:23.787Z,6.40
2019-02-25T02:47:23.810Z,5.20
2019-02-25T02:48:23.829Z,5.40
2019-02-25T02:49:23.862Z,8.00
2019-02-25T02:50:23.879Z,5.80
2019-02-25T02:51:23.902Z,5.40
2019-02-25T02:52:23.925Z,6.30
2019-02-25T02:53:23.950Z,8.30
2019-02-25T02:54:23.987Z,8.10
2019-02-25T02:55:24.002Z,7.20
2019-02-25T02:56:24.028Z,7.30
2019-02-25T02:57:24.048Z,6.40
2019-02-25T02:58:24.072Z,5.20
2019-02-25T02:59:24.094Z,5.50
2019-02-25T03:00:24.119Z,4.50
2019-02-25T03:01:24.143Z,6.90
2019-02-25T03:02:24.169Z,8.00
2019-02-25T03:03:24.191Z,7.50
2019-02-25T03:04:24.216Z,8.10
2019-02-25T03:05:24.242Z,6.60
2019-02-25T03:06:24.267Z,9.80
2019-02-25T03:07:24.291Z,5.10
2019-02-25T03:08:24.312Z,5.10
2019-02-25T03:09:24.336Z,4.80
2019-02-25T03:10:24.362Z,5.90
2019-02-25T03:11:24.385Z,5.30
2019-02-25T03:12:24.408Z,5.80
2019-02-25T03:13:31.191Z,5.50
2019-02-25T03:14:24.458Z,5.30
2019-02-25T03:15:24.481Z,4.60
2019-02-25T03:16:24.514Z,4.60
2019-02-25T03:17:24.529Z,4.90
2019-02-25T03:18:24.553Z,5.50
2019-02-25T03:19:24.589Z,5.10
2019-02-25T03:20:24.602Z,5.30
2019-02-25T03:21:24.629Z,5.70
2019-02-25T03:22:24.650Z,6.10
2019-02-25T03:23:24.673Z,5.20
2019-02-25T03:24:24.698Z,5.20
2019-02-25T03:25:24.723Z,5.80
2019-02-25T03:26:24.747Z,6.20
2019-02-25T03:27:27.776Z,5.20
2019-02-25T03:28:24.796Z,6.30
2019-02-25T03:29:24.819Z,5.40
2019-02-25T03:30:24.861Z,4.80
2019-02-25T03:31:24.868Z,4.50
2019-02-25T03:32:24.892Z,4.00
2019-02-25T03:33:24.919Z,4.00
2019-02-25T03:34:24.943Z,4.40
2019-02-25T03:35:24.964Z,4.20
2019-02-25T03:36:24.989Z,3.60
2019-02-25T03:37:25.012Z,4.60
2019-02-25T03:38:25.035Z,5.70
2019-02-25T03:39:25.058Z,4.60
2019-02-25T03:40:25.085Z,4.40
2019-02-25T03:41:25.109Z,5.10
2019-02-25T03:42:25.185Z,4.90
2019-02-25T03:43:25.171Z,5.50
2019-02-25T03:44:25.179Z,4.50
2019-02-25T03:45:25.204Z,4.50
2019-02-25T03:46:25.228Z,4.70
2019-02-25T03:47:25.251Z,4.50
2019-02-25T03:48:25.277Z,5.00
2019-02-25T03:49:25.300Z,4.20
2019-02-25T03:50:25.325Z,4.00
2019-02-25T03:51:25.353Z,4.00
2019-02-25T03:52:25.374Z,3.60
2019-02-25T03:53:25.396Z,4.50
2019-02-25T03:54:25.424Z,6.50
2019-02-25T03:55:25.443Z,4.90
2019-02-25T03:56:25.469Z,4.70
2019-02-25T03:57:25.494Z,5.00
2019-02-25T03:58:25.516Z,5.90
2019-02-25T03:59:25.587Z,6.10
2019-02-25T04:00:25.564Z,5.80
2019-02-25T04:01:25.592Z,5.30
2019-02-25T04:02:25.614Z,5.30
2019-02-25T04:03:25.638Z,5.30
2019-02-25T04:04:25.659Z,5.50
2019-02-25T04:05:25.684Z,5.40
2019-02-25T04:06:25.708Z,5.50
2019-02-25T04:07:25.731Z,5.00
2019-02-25T04:08:25.755Z,5.10
2019-02-25T04:09:25.782Z,5.30
2019-02-25T04:10:25.804Z,5.00
2019-02-25T04:11:25.825Z,4.80
2019-02-25T04:12:25.849Z,6.20
2019-02-25T04:13:25.874Z,6.50
2019-02-25T04:14:25.898Z,7.60
2019-02-25T04:15:25.928Z,6.70
2019-02-25T04:16:25.945Z,8.10
2019-02-25T04:17:25.969Z,10.10
2019-02-25T04:18:25.996Z,5.40
2019-02-25T04:19:26.018Z,7.10
2019-02-25T04:20:26.041Z,6.10
2019-02-25T04:21:26.065Z,8.40
2019-02-25T04:22:26.088Z,5.70
2019-02-25T04:23:26.112Z,6.40
2019-02-25T04:24:26.136Z,8.30
2019-02-25T04:25:26.167Z,5.70
2019-02-25T04:26:26.209Z,5.90
2019-02-25T04:27:26.206Z,5.80
2019-02-25T04:28:26.231Z,5.90
2019-02-25T04:29:26.254Z,9.10
2019-02-25T04:30:26.279Z,5.90
2019-02-25T04:31:26.302Z,9.40
2019-02-25T04:32:26.326Z,5.50
2019-02-25T04:33:26.349Z,6.40
2019-02-25T04:34:26.374Z,5.20
2019-02-25T04:35:28.851Z,5.10
2019-02-25T04:36:26.421Z,6.30
2019-02-25T04:37:26.443Z,6.00
2019-02-25T04:38:26.467Z,8.80
2019-02-25T04:39:26.490Z,6.10
2019-02-25T04:40:26.518Z,11.40
2019-02-25T04:41:26.540Z,7.00
2019-02-25T04:42:26.564Z,5.80
2019-02-25T04:43:26.586Z,6.00
2019-02-25T04:44:26.611Z,5.20
2019-02-25T04:45:26.641Z,7.70
2019-02-25T04:46:26.660Z,5.20
2019-02-25T04:47:26.682Z,5.70
2019-02-25T04:48:26.705Z,5.10
2019-02-25T04:49:26.729Z,7.40
2019-02-25T04:50:26.755Z,5.60
2019-02-25T04:51:26.781Z,8.50
2019-02-25T04:52:26.815Z,7.30
2019-02-25T04:53:26.823Z,6.30
2019-02-25T04:54:26.848Z,8.30
2019-02-25T04:55:26.873Z,5.80
2019-02-25T04:56:26.897Z,9.60
2019-02-25T04:57:26.920Z,5.40
2019-02-25T04:58:26.943Z,5.00
2019-02-25T04:59:26.965Z,4.90
2019-02-25T05:00:27.045Z,6.20
2019-02-25T05:01:27.016Z,6.20
2019-02-25T05:02:27.038Z,6.70
2019-02-25T05:03:27.069Z,7.70
2019-02-25T05:04:27.085Z,8.80
2019-02-25T05:05:27.110Z,6.00
2019-02-25T05:06:27.140Z,6.40
2019-02-25T05:07:27.159Z,7.40
2019-02-25T05:08:27.181Z,6.00
2019-02-25T05:09:27.207Z,5.60
2019-02-25T05:10:27.229Z,6.30
2019-02-25T05:11:27.258Z,5.30
2019-02-25T05:12:27.278Z,5.60
2019-02-25T05:13:27.300Z,7.80
2019-02-25T05:14:27.325Z,5.90
2019-02-25T05:15:27.360Z,8.80
2019-02-25T05:16:27.371Z,6.20
2019-02-25T05:17:27.406Z,8.40
2019-02-25T05:18:27.421Z,6.80
2019-02-25T05:19:27.442Z,6.20
2019-02-25T05:20:27.471Z,5.40
2019-02-25T05:21:27.493Z,5.20
2019-02-25T05:22:27.516Z,5.30
2019-02-25T05:23:27.542Z,5.20
2019-02-25T05:24:27.564Z,6.40
2019-02-25T05:25:27.589Z,5.20
2019-02-25T05:26:27.613Z,6.80
2019-02-25T05:27:27.638Z,5.30
2019-02-25T05:28:27.660Z,5.30
2019-02-25T05:29:27.687Z,5.70
2019-02-25T05:30:27.709Z,5.80
2019-02-25T05:31:27.731Z,8.40
2019-02-25T05:32:27.757Z,4.90
2019-02-25T05:33:27.780Z,5.60
2019-02-25T05:34:27.806Z,5.10
2019-02-25T05:35:27.828Z,6.40
2019-02-25T05:36:27.853Z,5.00
2019-02-25T05:37:27.888Z,5.90
2019-02-25T05:38:27.901Z,5.10
2019-02-25T05:39:27.925Z,4.60
2019-02-25T05:40:27.948Z,5.20
2019-02-25T05:41:27.973Z,6.30
2019-02-25T05:42:27.997Z,5.30
2019-02-25T05:43:28.019Z,5.60
2019-02-25T05:44:28.050Z,5.70
2019-02-25T05:45:28.069Z,5.60
2019-02-25T05:46:28.092Z,7.80
2019-02-25T05:47:28.116Z,6.80
2019-02-25T05:48:28.140Z,6.00
2019-02-25T05:49:28.168Z,6.50
2019-02-25T05:50:28.191Z,5.90
2019-02-25T05:51:28.225Z,6.60
2019-02-25T05:52:28.238Z,4.80
2019-02-25T05:53:28.260Z,6.50
2019-02-25T05:54:28.287Z,6.70
2019-02-25T05:55:28.308Z,7.00
2019-02-25T05:56:28.366Z,8.80
2019-02-25T05:57:28.359Z,7.70
2019-02-25T05:58:28.381Z,7.90
2019-02-25T05:59:28.405Z,6.20
2019-02-25T06:00:28.448Z,6.20
2019-02-25T06:01:28.452Z,5.60
2019-02-25T06:02:28.498Z,5.00
2019-02-25T06:03:28.500Z,4.70
2019-02-25T06:04:28.524Z,5.30
2019-02-25T06:05:28.548Z,4.60
2019-02-25T06:06:28.579Z,4.30
2019-02-25T06:07:28.599Z,7.70
2019-02-25T06:08:28.620Z,5.80
2019-02-25T06:09:28.646Z,8.40
2019-02-25T06:10:28.668Z,6.10
2019-02-25T06:11:28.693Z,4.40
2019-02-25T06:12:28.716Z,4.80
2019-02-25T06:13:28.740Z,5.50
2019-02-25T06:14:28.765Z,8.90
2019-02-25T06:15:28.792Z,5.30
2019-02-25T06:16:28.812Z,6.40
2019-02-25T06:17:28.843Z,5.10
2019-02-25T06:18:28.862Z,6.50
2019-02-25T06:19:28.884Z,4.40
2019-02-25T06:20:28.908Z,5.50
2019-02-25T06:21:28.932Z,8.60
2019-02-25T06:22:28.959Z,6.60
2019-02-25T06:23:28.982Z,7.90
2019-02-25T06:24:29.005Z,5.30
2019-02-25T06:25:29.048Z,7.40
2019-02-25T06:26:29.053Z,5.30
2019-02-25T06:27:30.984Z,10.20
2019-02-25T06:28:29.100Z,6.20
2019-02-25T06:29:29.127Z,6.40
2019-02-25T06:30:29.187Z,7.80
2019-02-25T06:31:29.172Z,7.80
2019-02-25T06:32:29.196Z,10.40
2019-02-25T06:33:29.220Z,8.90
2019-02-25T06:34:29.245Z,12.20
2019-02-25T06:35:29.273Z,11.30
2019-02-25T06:36:29.294Z,7.10
2019-02-25T06:37:29.318Z,7.60
2019-02-25T06:38:29.345Z,7.10
2019-02-25T06:39:29.368Z,7.30
2019-02-25T06:40:29.388Z,7.40
2019-02-25T06:41:29.413Z,8.90
2019-02-25T06:42:29.437Z,7.20
2019-02-25T06:43:29.460Z,9.40
2019-02-25T06:44:29.485Z,11.50
2019-02-25T06:45:31.087Z,9.60
2019-02-25T06:46:29.535Z,12.60
2019-02-25T06:47:29.558Z,9.50
2019-02-25T06:48:29.582Z,9.80
2019-02-25T06:49:29.607Z,16.90
2019-02-25T06:50:29.630Z,11.60
2019-02-25T06:51:29.675Z,11.50
2019-02-25T06:52:29.683Z,12.60
2019-02-25T06:53:29.704Z,8.60
2019-02-25T06:54:29.728Z,9.70
2019-02-25T06:55:29.754Z,6.50
2019-02-25T06:56:29.775Z,7.30
2019-02-25T06:57:29.832Z,13.50
2019-02-25T06:58:29.824Z,19.30
2019-02-25T06:59:29.852Z,51.90
2019-02-25T07:00:29.873Z,11.30
2019-02-25T07:01:29.898Z,16.20
2019-02-25T07:02:29.925Z,21.10
2019-02-25T07:03:29.945Z,46.20
2019-02-25T07:04:29.971Z,36.40
2019-02-25T07:05:29.999Z,62.90
2019-02-25T07:06:30.022Z,53.90
2019-02-25T07:07:30.046Z,58.60
2019-02-25T07:08:30.069Z,76.30
2019-02-25T07:09:30.094Z,58.60
2019-02-25T07:10:30.119Z,55.40
2019-02-25T07:11:30.165Z,26.40
2019-02-25T07:12:30.170Z,30.00
2019-02-25T07:13:30.193Z,14.90
2019-02-25T07:14:30.220Z,34.40
2019-02-25T07:15:30.243Z,27.00
2019-02-25T07:16:30.270Z,26.90
2019-02-25T07:17:30.293Z,17.20
2019-02-25T07:18:30.319Z,16.00
2019-02-25T07:19:30.343Z,10.60
2019-02-25T07:20:30.368Z,13.20
2019-02-25T07:21:30.394Z,11.10
2019-02-25T07:22:30.421Z,17.10
2019-02-25T07:23:30.448Z,17.40
2019-02-25T07:24:30.472Z,11.50
2019-02-25T07:25:30.498Z,8.00
2019-02-25T07:26:30.524Z,9.50
2019-02-25T07:27:30.547Z,10.60
2019-02-25T07:28:30.573Z,16.40
2019-02-25T07:29:30.600Z,10.90
2019-02-25T07:30:30.625Z,10.90
2019-02-25T07:31:30.652Z,9.50
2019-02-25T07:32:30.677Z,8.70
2019-02-25T07:33:30.705Z,10.40
2019-02-25T07:34:30.881Z,8.10
2019-02-25T07:35:30.756Z,10.00
2019-02-25T07:36:30.782Z,9.10
2019-02-25T07:37:30.808Z,11.10
2019-02-25T07:38:39.138Z,8.40
2019-02-25T07:39:30.862Z,9.30
2019-02-25T07:40:30.886Z,7.80
2019-02-25T07:41:30.914Z,9.10
2019-02-25T07:42:30.940Z,14.80
2019-02-25T07:43:30.964Z,10.60
2019-02-25T07:44:30.993Z,7.10
2019-02-25T07:45:31.025Z,8.80
2019-02-25T07:46:31.096Z,7.70
2019-02-25T07:47:31.071Z,7.90
2019-02-25T07:48:31.098Z,9.90
2019-02-25T07:49:31.125Z,7.10
2019-02-25T07:50:31.153Z,13.20
2019-02-25T07:51:31.178Z,8.20
2019-02-25T07:52:31.241Z,10.90
2019-02-25T07:53:31.232Z,8.50
2019-02-25T07:54:31.509Z,7.20
2019-02-25T07:55:31.288Z,7.50
2019-02-25T07:56:31.313Z,9.20
2019-02-25T07:57:31.340Z,6.40
2019-02-25T07:58:31.367Z,7.20
2019-02-25T07:59:31.394Z,7.60
2019-02-25T08:00:31.420Z,7.60
2019-02-25T08:01:31.449Z,7.00
2019-02-25T08:02:31.477Z,8.10
2019-02-25T08:03:31.504Z,7.00
2019-02-25T08:04:31.531Z,7.80
2019-02-25T08:05:31.558Z,7.30
2019-02-25T08:06:31.587Z,6.70
2019-02-25T08:07:31.613Z,8.00
2019-02-25T08:08:31.641Z,6.60
2019-02-25T08:09:31.669Z,7.00
2019-02-25T08:10:31.699Z,6.90
2019-02-25T08:11:31.727Z,6.50
2019-02-25T08:12:31.752Z,8.50
2019-02-25T08:13:31.781Z,8.70
2019-02-25T08:14:31.810Z,6.00
2019-02-25T08:15:31.837Z,6.20
2019-02-25T08:16:31.865Z,6.20
2019-02-25T08:17:31.897Z,6.40
2019-02-25T08:18:31.926Z,12.50
2019-02-25T08:19:31.951Z,10.90
2019-02-25T08:20:31.979Z,8.60
2019-02-25T08:21:32.007Z,6.70
2019-02-25T08:22:32.037Z,7.00
2019-02-25T08:23:32.065Z,9.80
2019-02-25T08:24:32.098Z,10.40
2019-02-25T08:25:32.126Z,7.00
2019-02-25T08:26:32.153Z,9.20
2019-02-25T08:27:32.181Z,11.10
2019-02-25T08:28:32.681Z,7.70
2019-02-25T08:29:32.239Z,14.00
2019-02-25T08:30:32.270Z,10.50
2019-02-25T08:31:32.300Z,17.00
2019-02-25T08:32:32.329Z,15.60
2019-02-25T08:33:32.361Z,8.30
2019-02-25T08:34:32.389Z,9.90
2019-02-25T08:35:32.419Z,11.10
2019-02-25T08:36:32.450Z,7.80
2019-02-25T08:37:32.483Z,8.20
2019-02-25T08:38:32.513Z,12.40
2019-02-25T08:39:32.544Z,8.30
2019-02-25T08:40:32.571Z,7.90
2019-02-25T08:41:32.627Z,7.50
2019-02-25T08:42:32.634Z,7.80
2019-02-25T08:43:32.664Z,6.30
2019-02-25T08:44:32.696Z,7.30
2019-02-25T08:45:32.727Z,8.00
2019-02-25T08:46:32.759Z,6.40
2019-02-25T08:47:32.793Z,7.30
2019-02-25T08:48:32.820Z,6.50
2019-02-25T08:49:32.853Z,8.40
2019-02-25T08:50:32.885Z,9.10
2019-02-25T08:51:32.915Z,7.10
2019-02-25T08:52:32.947Z,6.30
2019-02-25T08:53:32.980Z,10.20
2019-02-25T08:54:33.012Z,8.90
2019-02-25T08:55:33.043Z,8.30
2019-02-25T08:56:33.077Z,8.50
2019-02-25T08:57:33.109Z,6.70
2019-02-25T08:58:33.140Z,10.10
2019-02-25T08:59:33.224Z,6.00
2019-02-25T09:00:33.207Z,10.30
2019-02-25T09:01:33.238Z,7.10
2019-02-25T09:02:33.272Z,7.60
2019-02-25T09:03:33.305Z,7.20
2019-02-25T09:04:33.337Z,7.10
2019-02-25T09:05:33.372Z,7.00
2019-02-25T09:06:33.405Z,7.70
2019-02-25T09:07:33.436Z,6.20
2019-02-25T09:08:33.474Z,6.60
2019-02-25T09:09:33.505Z,6.30
2019-02-25T09:10:33.539Z,10.20
2019-02-25T09:11:33.574Z,6.20
2019-02-25T09:12:33.606Z,8.40
2019-02-25T09:13:33.642Z,6.80
2019-02-25T09:14:33.679Z,6.30
2019-02-25T09:15:33.712Z,6.50
2019-02-25T09:16:33.746Z,7.50
2019-02-25T09:17:33.782Z,9.20
2019-02-25T09:18:33.825Z,8.20
2019-02-25T09:19:33.849Z,7.90
2019-02-25T09:20:33.884Z,7.50
2019-02-25T09:21:33.927Z,6.80
2019-02-25T09:22:33.958Z,7.70
2019-02-25T09:23:33.990Z,8.70
2019-02-25T09:24:34.027Z,7.10
2019-02-25T09:25:34.062Z,9.00
2019-02-25T09:26:34.100Z,8.60
2019-02-25T09:27:34.135Z,7.30
2019-02-25T09:28:34.170Z,7.00
2019-02-25T09:29:34.207Z,8.20
2019-02-25T09:30:34.244Z,6.80
2019-02-25T09:31:34.280Z,6.40
2019-02-25T09:32:34.323Z,6.30
2019-02-25T09:33:34.353Z,7.60
2019-02-25T09:35:34.432Z,5.80
2019-02-25T09:36:34.461Z,7.40
2019-02-25T09:37:34.500Z,7.00
2019-02-25T09:38:34.538Z,6.40
2019-02-25T09:39:34.627Z,5.50
2019-02-25T09:40:34.612Z,6.30
2019-02-25T09:41:34.651Z,5.90
2019-02-25T09:42:34.688Z,5.80
2019-02-25T09:43:34.727Z,6.00
2019-02-25T09:44:34.764Z,6.00
2019-02-25T09:45:34.804Z,7.10
2019-02-25T09:46:34.841Z,5.60
2019-02-25T09:47:34.879Z,6.30
2019-02-25T09:48:34.918Z,6.00
2019-02-25T09:49:34.961Z,5.60
2019-02-25T09:50:34.997Z,5.90
2019-02-25T09:51:35.035Z,7.60
2019-02-25T09:52:35.075Z,7.90
2019-02-25T09:53:35.114Z,7.30
2019-02-25T09:54:35.155Z,5.40
2019-02-25T09:55:35.190Z,6.00
2019-02-25T09:56:37.281Z,7.10
2019-02-25T09:57:35.269Z,6.50
2019-02-25T09:58:35.310Z,5.80
2019-02-25T09:59:35.348Z,6.10
2019-02-25T10:00:35.393Z,8.60
2019-02-25T10:01:35.429Z,5.90
2019-02-25T10:02:35.468Z,5.10
2019-02-25T10:03:35.507Z,7.20
2019-02-25T10:04:35.549Z,5.70
2019-02-25T10:05:35.590Z,6.50
2019-02-25T10:06:35.628Z,6.10
2019-02-25T10:07:35.668Z,6.00
2019-02-25T10:08:35.710Z,6.80
2019-02-25T10:09:35.750Z,7.60
2019-02-25T10:10:35.793Z,9.60
2019-02-25T10:11:35.829Z,9.30
2019-02-25T10:12:35.869Z,6.60
2019-02-25T10:13:35.914Z,7.00
2019-02-25T10:14:35.952Z,6.60
2019-02-25T10:15:35.990Z,8.20
2019-02-25T10:16:36.032Z,6.90
2019-02-25T10:18:36.114Z,8.50
2019-02-25T10:19:36.153Z,7.90
2019-02-25T10:20:36.196Z,6.70
2019-02-25T10:21:36.664Z,7.60
2019-02-25T10:22:36.276Z,6.20
2019-02-25T10:23:36.318Z,9.50
2019-02-25T10:24:36.358Z,7.70
2019-02-25T10:25:36.400Z,7.10
2019-02-25T10:26:36.441Z,7.10
2019-02-25T10:27:37.314Z,7.70
2019-02-25T10:28:36.523Z,6.30
2019-02-25T10:29:36.565Z,6.20
2019-02-25T10:30:37.821Z,6.60
2019-02-25T10:31:38.063Z,6.80
2019-02-25T10:32:36.691Z,6.50
2019-02-25T10:33:36.733Z,7.00
2019-02-25T10:34:36.775Z,6.90
2019-02-25T10:35:36.818Z,9.20
2019-02-25T10:36:36.859Z,9.80
2019-02-25T10:37:38.662Z,6.70
2019-02-25T10:38:37.632Z,6.50
2019-02-25T10:39:36.988Z,8.10
2019-02-25T10:40:37.029Z,10.60
2019-02-25T10:41:37.072Z,7.60
2019-02-25T10:42:37.769Z,11.40
2019-02-25T10:43:37.157Z,7.30
2019-02-25T10:44:38.183Z,7.40
2019-02-25T10:45:38.976Z,11.00
2019-02-25T10:46:38.998Z,6.90
2019-02-25T10:47:37.329Z,7.40
2019-02-25T10:48:37.373Z,7.90
2019-02-25T10:49:37.416Z,6.80
2019-02-25T10:50:38.594Z,8.20
2019-02-25T10:51:40.634Z,6.90
2019-02-25T10:52:38.830Z,9.50
2019-02-25T10:53:37.588Z,10.00
2019-02-25T10:54:37.631Z,12.40
2019-02-25T10:55:37.674Z,12.40
2019-02-25T10:56:37.717Z,6.80
2019-02-25T10:57:37.760Z,7.00
2019-02-25T10:58:37.805Z,6.60
2019-02-25T10:59:39.534Z,7.00
2019-02-25T11:00:39.571Z,7.80
2019-02-25T11:01:39.246Z,6.30
2019-02-25T11:02:44.009Z,6.20
2019-02-25T11:03:38.019Z,7.80
2019-02-25T11:04:38.064Z,7.20
2019-02-25T11:05:38.107Z,5.60
2019-02-25T11:06:38.151Z,7.50
2019-02-25T11:07:39.811Z,6.20
2019-02-25T11:08:39.475Z,7.00
2019-02-25T11:09:39.878Z,5.80
2019-02-25T11:10:38.328Z,7.20
2019-02-25T11:11:38.372Z,6.50
2019-02-25T11:12:40.453Z,7.20
2019-02-25T11:13:38.463Z,6.70
2019-02-25T11:14:40.954Z,7.50
2019-02-25T11:15:40.204Z,12.50
2019-02-25T11:16:38.595Z,11.40
2019-02-25T11:17:38.641Z,6.80
2019-02-25T11:18:40.449Z,7.10
2019-02-25T11:19:38.729Z,8.70
2019-02-25T11:20:38.774Z,5.90
2019-02-25T11:21:39.956Z,8.20
2019-02-25T11:22:39.896Z,9.80
2019-02-25T11:23:38.908Z,9.80
2019-02-25T11:24:38.973Z,6.80
2019-02-25T11:25:39.000Z,6.50
2019-02-25T11:26:39.044Z,9.60
2019-02-25T11:27:40.003Z,7.50
2019-02-25T11:28:41.042Z,7.80
2019-02-25T11:29:40.494Z,7.00
2019-02-25T11:30:39.226Z,9.90
2019-02-25T11:32:39.314Z,5.70
2019-02-25T11:33:39.362Z,6.70
2019-02-25T11:34:39.891Z,7.30
2019-02-25T11:35:41.101Z,6.70
2019-02-25T11:36:39.499Z,7.50
2019-02-25T11:37:39.544Z,7.10
2019-02-25T11:38:39.592Z,6.90
2019-02-25T11:39:39.640Z,8.30
2019-02-25T11:40:39.680Z,5.50
2019-02-25T11:41:41.087Z,8.00
2019-02-25T11:42:39.773Z,15.40
2019-02-25T11:43:39.817Z,8.00
2019-02-25T11:44:39.869Z,6.50
2019-02-25T11:45:39.911Z,8.30
2019-02-25T11:46:39.956Z,6.90
2019-02-25T11:47:40.001Z,7.60
2019-02-25T11:48:40.069Z,8.20
2019-02-25T11:49:40.095Z,5.40
2019-02-25T11:50:40.141Z,10.80
2019-02-25T11:51:40.191Z,11.60
2019-02-25T11:52:40.231Z,7.90
2019-02-25T11:53:40.278Z,6.90
2019-02-25T11:54:40.331Z,9.30
2019-02-25T11:55:40.380Z,7.40
2019-02-25T11:56:40.416Z,8.90
2019-02-25T11:57:40.464Z,9.90
2019-02-25T11:58:40.513Z,9.20
2019-02-25T11:59:40.559Z,7.70
2019-02-25T12:00:40.605Z,6.90
2019-02-25T12:01:40.651Z,9.00
2019-02-25T12:02:40.697Z,6.90
2019-02-25T12:03:44.177Z,5.80
2019-02-25T12:04:44.628Z,8.10
2019-02-25T12:05:40.836Z,6.80
2019-02-25T12:06:41.107Z,5.90
2019-02-25T12:07:40.929Z,8.20
2019-02-25T12:08:41.306Z,6.90
2019-02-25T12:09:41.024Z,6.00
2019-02-25T12:10:41.069Z,6.50
2019-02-25T12:11:41.117Z,7.40
2019-02-25T12:12:41.163Z,7.20
2019-02-25T12:13:41.212Z,7.80
2019-02-25T12:14:41.258Z,9.60
2019-02-25T12:15:41.305Z,10.70
2019-02-25T12:16:41.351Z,10.80
2019-02-25T12:17:41.400Z,8.70
2019-02-25T12:18:41.448Z,13.90
2019-02-25T12:19:41.494Z,10.60
2019-02-25T12:20:41.542Z,9.00
2019-02-25T12:21:42.354Z,9.60
2019-02-25T12:22:41.638Z,10.30
2019-02-25T12:23:41.685Z,6.50
2019-02-25T12:24:41.734Z,9.90
2019-02-25T12:25:41.781Z,8.70
2019-02-25T12:26:41.830Z,11.50
2019-02-25T12:27:41.876Z,8.70
2019-02-25T12:28:41.926Z,7.50
2019-02-25T12:29:42.100Z,7.10
2019-02-25T12:30:42.025Z,11.60
2019-02-25T12:31:42.070Z,9.70
2019-02-25T12:32:42.118Z,10.70
2019-02-25T12:33:42.166Z,8.60
2019-02-25T12:34:42.213Z,12.30
2019-02-25T12:35:42.265Z,9.10
2019-02-25T12:36:42.308Z,8.30
2019-02-25T12:37:42.356Z,7.40
2019-02-25T12:38:42.405Z,13.50
2019-02-25T12:39:42.452Z,8.70
2019-02-25T12:40:42.497Z,7.80
2019-02-25T12:41:42.545Z,8.70
2019-02-25T12:42:42.594Z,7.60
2019-02-25T12:43:42.640Z,6.40
2019-02-25T12:44:42.688Z,7.30
2019-02-25T12:45:42.736Z,10.20
2019-02-25T12:46:42.787Z,11.00
2019-02-25T12:47:42.833Z,10.00
2019-02-25T12:48:42.879Z,11.30
2019-02-25T12:49:42.927Z,7.10
2019-02-25T12:50:42.977Z,6.40
2019-02-25T12:51:43.026Z,7.80
2019-02-25T12:52:43.101Z,7.40
2019-02-25T12:53:43.124Z,14.30
2019-02-25T12:54:43.178Z,10.10
2019-02-25T12:55:43.220Z,6.30
2019-02-25T12:56:43.267Z,6.80
2019-02-25T12:57:43.340Z,5.60
2019-02-25T12:58:43.388Z,7.80
2019-02-25T13:00:43.462Z,11.60
2019-02-25T13:01:43.511Z,6.40
2019-02-25T13:02:43.560Z,11.80
2019-02-25T13:03:43.608Z,7.40
2019-02-25T13:04:43.657Z,9.60
2019-02-25T13:05:43.706Z,7.20
2019-02-25T13:06:43.754Z,8.70
2019-02-25T13:07:43.801Z,9.00
2019-02-25T13:08:43.849Z,8.50
2019-02-25T13:09:43.897Z,8.50
2019-02-25T13:10:43.946Z,6.80
2019-02-25T13:11:43.993Z,11.20
2019-02-25T13:12:44.042Z,7.00
2019-02-25T13:13:44.089Z,8.20
2019-02-25T13:14:44.135Z,7.90
2019-02-25T13:15:44.243Z,9.30
2019-02-25T13:16:44.634Z,14.10
2019-02-25T13:17:44.278Z,6.30
2019-02-25T13:18:44.326Z,9.30